Time;durP1;ratioP1;P1;durP2;ratioP2;P2;SDS_P1;SDS_P2;PMS_P1;PMS_P2;Temp;Humidity;BMP_temperature;BMP_pressure;BME280_temperature;BME280_humidity;BME280_pressure;Samples;Min_cycle;Max_cycle;Signal;HPM_P1;HPM_P2
2023/04/03 00:00:31;;;;;;;10.07;1.75;;;5.40;99.90;;;;;;5009890;28;20058;-60
2023/04/03 00:02:58;;;;;;;11.63;2.50;;;5.30;99.90;;;;;;5010788;28;20125;-64
2023/04/03 00:05:25;;;;;;;6.38;1.30;;;5.30;99.90;;;;;;5010116;28;20060;-62
2023/04/03 00:07:52;;;;;;;7.78;2.40;;;5.30;99.90;;;;;;5010812;28;20042;-59
2023/04/03 00:10:19;;;;;;;10.48;2.28;;;5.20;99.90;;;;;;5010045;28;20049;-60
2023/04/03 00:12:45;;;;;;;7.32;1.50;;;5.20;99.90;;;;;;5009490;28;20064;-60
2023/04/03 00:15:12;;;;;;;4.13;1.40;;;5.20;99.90;;;;;;5008372;28;20042;-60
2023/04/03 00:17:39;;;;;;;8.82;1.60;;;5.30;99.90;;;;;;5014469;28;20049;-60
2023/04/03 00:20:06;;;;;;;12.00;1.73;;;5.20;99.90;;;;;;5009071;28;20636;-60
2023/04/03 00:22:33;;;;;;;9.63;1.95;;;5.20;99.90;;;;;;5009512;28;20129;-60
2023/04/03 00:25:00;;;;;;;12.75;1.60;;;5.10;99.90;;;;;;5002193;28;20137;-60
2023/04/03 00:27:27;;;;;;;6.50;1.92;;;5.10;99.90;;;;;;5009409;28;20128;-60
2023/04/03 00:29:53;;;;;;;18.75;2.22;;;5.00;99.90;;;;;;5006501;28;20133;-61
2023/04/03 00:32:20;;;;;;;5.43;1.42;;;5.00;99.90;;;;;;4998741;28;20129;-60
2023/04/03 00:34:47;;;;;;;8.07;1.80;;;5.00;99.90;;;;;;4998948;28;20057;-60
2023/04/03 00:37:13;;;;;;;9.70;1.58;;;5.00;99.90;;;;;;5001583;28;20526;-60
2023/04/03 00:39:40;;;;;;;10.90;2.08;;;5.00;99.90;;;;;;5012157;28;20049;-60
2023/04/03 00:42:07;;;;;;;15.98;3.63;;;5.00;99.90;;;;;;5009635;28;20060;-60
2023/04/03 00:44:34;;;;;;;14.27;2.22;;;5.00;99.90;;;;;;4992763;28;20136;-61
2023/04/03 00:47:01;;;;;;;7.97;1.90;;;5.00;99.90;;;;;;5009659;28;20057;-61
2023/04/03 00:49:28;;;;;;;7.60;1.65;;;5.00;99.90;;;;;;4995793;28;20053;-60
2023/04/03 00:51:55;;;;;;;7.85;2.17;;;4.90;99.90;;;;;;5009777;28;20137;-61
2023/04/03 00:54:22;;;;;;;10.77;1.95;;;4.90;99.90;;;;;;5009434;28;20129;-61
2023/04/03 00:56:50;;;;;;;4.85;1.33;;;4.90;99.90;;;;;;4999697;28;20056;-61
2023/04/03 00:59:30;;;;;;;9.85;1.52;;;4.90;99.90;;;;;;4991461;28;20100;-60
2023/04/03 01:01:56;;;;;;;10.75;1.67;;;4.80;99.90;;;;;;4982367;28;20048;-61
2023/04/03 01:04:28;;;;;;;10.57;1.85;;;4.80;99.90;;;;;;4997631;28;20053;-61
2023/04/03 01:07:00;;;;;;;4.82;1.67;;;4.90;99.90;;;;;;5008485;28;20417;-60
2023/04/03 01:09:28;;;;;;;6.65;1.60;;;4.70;99.90;;;;;;5001508;28;20042;-61
2023/04/03 01:11:54;;;;;;;10.00;1.67;;;4.60;99.90;;;;;;5004163;28;20461;-60
2023/04/03 01:14:21;;;;;;;7.20;1.50;;;4.60;99.90;;;;;;4997023;28;20057;-60
2023/04/03 01:16:54;;;;;;;5.63;2.00;;;4.50;99.90;;;;;;5009097;28;20056;-61
2023/04/03 01:19:21;;;;;;;14.02;2.83;;;4.50;99.90;;;;;;5009183;28;20100;-60
2023/04/03 01:22:08;;;;;;;5.93;1.73;;;4.40;99.90;;;;;;5005196;28;20050;-60
2023/04/03 01:24:36;;;;;;;5.22;1.45;;;4.50;99.90;;;;;;5003937;28;20051;-61
2023/04/03 01:27:03;;;;;;;9.52;2.00;;;4.50;99.90;;;;;;5007859;28;20046;-60
2023/04/03 01:29:30;;;;;;;6.97;2.10;;;4.50;99.90;;;;;;5005447;28;20125;-61
2023/04/03 01:31:58;;;;;;;9.75;2.45;;;4.50;99.90;;;;;;5008981;28;20223;-63
2023/04/03 01:34:25;;;;;;;15.93;1.90;;;4.40;99.90;;;;;;5008414;28;20050;-61
2023/04/03 01:36:52;;;;;;;8.10;2.08;;;4.40;99.90;;;;;;5008705;28;20153;-60
2023/04/03 01:39:19;;;;;;;11.50;1.70;;;4.30;99.90;;;;;;5000735;28;20398;-62
2023/04/03 01:41:46;;;;;;;13.13;2.17;;;4.30;99.90;;;;;;5014176;28;20064;-60
2023/04/03 01:44:13;;;;;;;5.22;1.67;;;4.30;99.90;;;;;;5008532;28;20089;-61
2023/04/03 01:46:41;;;;;;;6.25;1.80;;;4.30;99.90;;;;;;4662085;28;10000150;-61
2023/04/03 01:49:08;;;;;;;3.42;1.40;;;4.30;99.90;;;;;;5006104;28;20054;-60
2023/04/03 01:51:34;;;;;;;7.22;1.55;;;4.30;99.90;;;;;;5008738;28;20132;-60
2023/04/03 01:54:01;;;;;;;5.15;1.35;;;4.30;99.90;;;;;;5008475;28;20145;-61
2023/04/03 01:56:28;;;;;;;10.50;1.75;;;4.30;99.90;;;;;;4978870;28;20096;-61
2023/04/03 01:58:55;;;;;;;9.35;2.88;;;4.20;99.90;;;;;;4994985;28;20056;-60
2023/04/03 02:01:21;;;;;;;8.65;2.13;;;4.20;99.90;;;;;;5008569;28;20179;-60
2023/04/03 02:03:48;;;;;;;10.00;2.13;;;4.20;99.90;;;;;;4997437;28;20046;-60
2023/04/03 02:06:15;;;;;;;5.75;1.50;;;4.20;99.90;;;;;;5008754;28;20060;-60
2023/04/03 02:08:42;;;;;;;11.00;2.00;;;4.10;99.90;;;;;;5008280;28;20418;-59
2023/04/03 02:11:09;;;;;;;9.82;2.20;;;4.10;99.90;;;;;;4989891;28;20049;-60
2023/04/03 02:13:35;;;;;;;10.15;1.92;;;4.00;99.90;;;;;;4993039;28;20042;-60
2023/04/03 02:16:12;;;;;;;9.38;2.65;;;4.00;99.90;;;;;;4999786;28;20046;-60
2023/04/03 02:18:39;;;;;;;4.07;1.73;;;4.00;99.90;;;;;;5001804;28;20092;-59
2023/04/03 02:21:06;;;;;;;7.30;2.00;;;4.40;99.90;;;;;;5008669;28;20560;-61
2023/04/03 02:23:35;;;;;;;7.43;1.73;;;3.90;99.90;;;;;;5008140;28;20081;-61
2023/04/03 02:26:10;;;;;;;10.27;1.60;;;3.90;99.90;;;;;;5012968;28;20123;-61
2023/04/03 02:28:37;;;;;;;11.95;2.42;;;3.90;99.90;;;;;;5001694;28;20076;-61
2023/04/03 02:31:04;;;;;;;9.57;3.80;;;3.80;99.90;;;;;;4988240;28;20046;-61
2023/04/03 02:33:31;;;;;;;14.90;3.13;;;3.70;99.90;;;;;;5007915;28;20045;-63
2023/04/03 02:35:57;;;;;;;10.85;4.50;;;3.70;99.90;;;;;;5000650;28;20140;-61
2023/04/03 02:38:24;;;;;;;10.48;1.40;;;3.60;99.90;;;;;;5008764;28;20045;-60
2023/04/03 02:40:51;;;;;;;4.53;1.40;;;3.50;99.90;;;;;;4995773;28;20494;-60
2023/04/03 02:43:18;;;;;;;13.02;1.70;;;3.50;99.90;;;;;;5004864;28;20141;-60
2023/04/03 02:45:45;;;;;;;8.27;1.73;;;3.50;99.90;;;;;;5008964;28;20053;-59
2023/04/03 02:48:12;;;;;;;7.97;1.85;;;3.40;99.90;;;;;;4996102;28;20048;-60
2023/04/03 02:50:38;;;;;;;5.70;1.45;;;3.40;99.90;;;;;;5009458;28;20456;-61
2023/04/03 02:53:05;;;;;;;8.63;1.48;;;3.40;99.90;;;;;;5010939;28;20492;-61
2023/04/03 02:55:32;;;;;;;7.85;1.83;;;3.40;99.90;;;;;;5009438;28;20057;-60
2023/04/03 02:57:59;;;;;;;9.45;1.67;;;3.40;99.90;;;;;;5017220;28;20064;-60
2023/04/03 03:00:25;;;;;;;8.38;1.88;;;3.30;99.90;;;;;;5000561;28;20050;-61
2023/04/03 03:02:52;;;;;;;11.02;2.47;;;3.20;99.90;;;;;;5008174;28;20050;-60
2023/04/03 03:05:19;;;;;;;10.25;1.95;;;3.20;99.90;;;;;;5000698;28;20050;-60
2023/04/03 03:07:46;;;;;;;5.85;1.70;;;3.00;99.90;;;;;;5008367;28;20046;-61
2023/04/03 03:10:13;;;;;;;6.93;2.90;;;3.00;99.90;;;;;;5007740;28;20507;-61
2023/04/03 03:12:40;;;;;;;4.53;1.65;;;3.00;99.90;;;;;;5008380;28;20124;-60
2023/04/03 03:15:07;;;;;;;7.85;1.73;;;3.10;99.90;;;;;;5007738;28;20077;-61
2023/04/03 03:17:35;;;;;;;8.05;2.10;;;3.00;99.90;;;;;;5007781;28;20133;-60
2023/04/03 03:20:06;;;;;;;5.32;2.30;;;3.10;99.90;;;;;;5007645;28;20463;-60
2023/04/03 03:22:35;;;;;;;8.70;2.08;;;3.00;99.90;;;;;;5007468;28;20413;-61
2023/04/03 03:25:02;;;;;;;4.90;2.85;;;3.10;99.90;;;;;;5007504;28;20046;-60
2023/04/03 03:27:29;;;;;;;5.20;1.23;;;3.00;99.90;;;;;;4998612;28;20082;-61
2023/04/03 03:29:56;;;;;;;8.48;2.28;;;3.00;99.90;;;;;;5010511;28;20524;-60
2023/04/03 03:32:22;;;;;;;15.60;1.73;;;3.00;99.90;;;;;;4997662;28;20074;-60
2023/04/03 03:34:49;;;;;;;7.43;2.70;;;3.00;99.90;;;;;;5007574;28;20081;-61
2023/04/03 03:37:16;;;;;;;5.93;1.85;;;3.00;99.90;;;;;;4997394;28;20132;-61
2023/04/03 03:39:43;;;;;;;4.40;1.38;;;2.80;99.90;;;;;;5007723;28;20137;-60
2023/04/03 03:42:11;;;;;;;4.88;1.80;;;2.80;99.90;;;;;;4996106;28;20042;-60
2023/04/03 03:44:37;;;;;;;8.32;2.72;;;2.70;99.90;;;;;;5007555;28;20048;-61
2023/04/03 03:47:05;;;;;;;14.95;2.40;;;2.70;99.90;;;;;;5007232;28;20564;-61
2023/04/03 03:49:32;;;;;;;15.23;2.17;;;2.60;99.90;;;;;;5007592;28;20133;-60
2023/04/03 03:51:59;;;;;;;5.65;1.65;;;2.60;99.90;;;;;;5000227;28;20050;-60
2023/04/03 03:54:26;;;;;;;9.02;1.98;;;2.60;99.90;;;;;;4994787;28;20128;-60
2023/04/03 03:56:52;;;;;;;5.28;1.50;;;2.60;99.90;;;;;;5003646;28;20050;-60
2023/04/03 03:59:19;;;;;;;5.75;1.98;;;2.60;99.90;;;;;;5006407;28;20120;-60
2023/04/03 04:01:46;;;;;;;13.95;2.08;;;2.60;99.90;;;;;;5007341;28;20046;-60
2023/04/03 04:04:13;;;;;;;5.20;1.70;;;2.60;99.90;;;;;;5004962;28;20100;-60
2023/04/03 04:06:40;;;;;;;8.40;1.75;;;2.60;99.90;;;;;;5006512;28;20085;-60
2023/04/03 04:09:08;;;;;;;4.10;1.30;;;2.60;99.90;;;;;;5007386;28;20050;-60
2023/04/03 04:11:35;;;;;;;8.10;2.03;;;2.60;99.90;;;;;;4990104;28;20096;-60
2023/04/03 04:14:01;;;;;;;4.80;1.77;;;2.60;99.90;;;;;;5006922;28;20563;-60
2023/04/03 04:16:28;;;;;;;7.28;1.98;;;2.60;99.90;;;;;;5006897;28;20288;-63
2023/04/03 04:18:55;;;;;;;9.70;3.08;;;2.50;99.90;;;;;;5006554;28;20524;-60
2023/04/03 04:21:22;;;;;;;8.18;2.60;;;2.50;99.90;;;;;;4992972;28;20133;-60
2023/04/03 04:23:48;;;;;;;5.47;1.58;;;2.50;99.90;;;;;;5003704;28;20081;-61
2023/04/03 04:26:15;;;;;;;6.10;1.65;;;2.50;99.90;;;;;;5006887;28;20136;-60
2023/04/03 04:28:42;;;;;;;6.82;1.98;;;2.60;99.90;;;;;;5006592;28;20668;-61
2023/04/03 04:31:09;;;;;;;8.30;1.80;;;2.70;99.90;;;;;;5007100;28;20104;-61
2023/04/03 04:33:36;;;;;;;11.90;2.45;;;2.70;99.90;;;;;;5006331;28;20088;-61
2023/04/03 04:36:03;;;;;;;5.22;1.65;;;2.70;99.90;;;;;;5008303;28;20481;-61
2023/04/03 04:38:29;;;;;;;7.47;1.67;;;2.70;99.90;;;;;;5009468;28;20041;-61
2023/04/03 04:40:56;;;;;;;18.48;3.65;;;2.70;99.90;;;;;;5006845;28;20133;-61
2023/04/03 04:43:23;;;;;;;6.47;1.98;;;2.70;99.90;;;;;;5009886;28;20389;-61
2023/04/03 04:46:09;;;;;;;11.05;3.03;;;2.80;99.90;;;;;;5010274;28;20153;-61
2023/04/03 04:48:36;;;;;;;10.95;1.55;;;2.70;99.90;;;;;;5006303;28;20060;-60
2023/04/03 04:51:03;;;;;;;8.25;3.70;;;2.70;99.90;;;;;;4996851;28;20410;-61
2023/04/03 04:53:29;;;;;;;4.38;1.98;;;2.60;99.90;;;;;;5009876;28;20194;-60
2023/04/03 04:55:56;;;;;;;7.43;1.67;;;2.60;99.90;;;;;;5009933;28;20413;-61
2023/04/03 04:58:23;;;;;;;5.55;1.83;;;2.60;99.90;;;;;;5007845;28;20530;-61
2023/04/03 05:00:50;;;;;;;6.25;2.63;;;2.70;99.90;;;;;;5002044;28;20137;-61
2023/04/03 05:03:16;;;;;;;13.05;1.77;;;2.70;99.90;;;;;;5009711;28;20096;-61
2023/04/03 05:05:43;;;;;;;7.80;1.92;;;2.70;99.90;;;;;;5009972;28;20046;-60
2023/04/03 05:08:10;;;;;;;12.90;1.60;;;2.70;99.90;;;;;;5008930;28;20041;-60
2023/04/03 05:10:37;;;;;;;6.15;1.50;;;2.80;99.90;;;;;;5009784;28;20496;-61
2023/04/03 05:13:04;;;;;;;6.05;1.73;;;2.80;99.90;;;;;;4996347;28;20178;-61
2023/04/03 05:15:30;;;;;;;9.13;2.00;;;2.90;99.90;;;;;;4999125;28;20049;-60
2023/04/03 05:17:57;;;;;;;10.05;2.03;;;2.90;99.90;;;;;;5001955;28;20046;-60
2023/04/03 05:20:24;;;;;;;11.98;2.17;;;2.90;99.90;;;;;;5008891;28;20069;-60
2023/04/03 05:22:53;;;;;;;9.07;3.00;;;2.90;99.90;;;;;;5009746;28;20049;-60
2023/04/03 05:25:20;;;;;;;10.30;1.80;;;3.10;99.90;;;;;;4997464;28;20434;-60
2023/04/03 05:27:47;;;;;;;7.18;2.35;;;3.00;99.90;;;;;;4997573;28;20705;-61
2023/04/03 05:30:14;;;;;;;8.10;2.00;;;3.10;99.90;;;;;;5008911;28;20045;-61
2023/04/03 05:32:41;;;;;;;8.55;1.70;;;3.10;99.90;;;;;;4999837;28;20085;-61
2023/04/03 05:35:08;;;;;;;4.65;1.48;;;3.10;99.90;;;;;;5002059;28;20050;-61
2023/04/03 05:37:35;;;;;;;14.07;3.15;;;3.10;99.90;;;;;;5008532;28;20119;-61
2023/04/03 05:40:05;;;;;;;10.60;2.75;;;3.10;99.90;;;;;;5005317;28;20072;-61
2023/04/03 05:42:32;;;;;;;10.77;2.95;;;3.20;99.90;;;;;;5008895;28;20621;-60
2023/04/03 05:44:59;;;;;;;8.65;2.25;;;3.20;99.90;;;;;;5008793;28;20042;-61
2023/04/03 05:47:26;;;;;;;9.65;2.13;;;3.30;99.90;;;;;;5007727;28;20046;-60
2023/04/03 05:49:53;;;;;;;4.90;2.60;;;3.40;99.90;;;;;;5009178;28;20034;-60
2023/04/03 05:52:31;;;;;;;9.10;1.85;;;3.30;99.90;;;;;;5008768;28;20076;-60
2023/04/03 05:54:57;;;;;;;8.30;2.28;;;3.40;99.90;;;;;;4991665;28;20038;-60
2023/04/03 05:57:24;;;;;;;12.60;2.75;;;3.40;99.90;;;;;;5008405;28;20421;-60
2023/04/03 05:59:51;;;;;;;8.88;1.92;;;3.50;99.90;;;;;;5008791;28;20452;-60
2023/04/03 06:02:20;;;;;;;5.32;2.15;;;3.40;99.90;;;;;;5008047;28;20072;-60
2023/04/03 06:04:47;;;;;;;21.27;3.58;;;3.40;99.90;;;;;;5007953;28;20089;-61
2023/04/03 06:07:17;;;;;;;8.65;2.28;;;4.00;99.90;;;;;;4994734;28;20042;-61
2023/04/03 06:09:44;;;;;;;10.15;2.15;;;3.50;99.90;;;;;;4999751;28;20098;-61
2023/04/03 06:12:11;;;;;;;12.82;2.30;;;3.60;99.90;;;;;;5007972;28;20073;-61
2023/04/03 06:14:37;;;;;;;10.63;3.85;;;3.60;99.90;;;;;;5008795;28;20050;-60
2023/04/03 06:17:04;;;;;;;15.25;2.70;;;3.70;99.90;;;;;;5007126;28;20568;-61
2023/04/03 06:19:31;;;;;;;4.93;2.13;;;3.70;99.90;;;;;;5003689;28;20112;-60
2023/04/03 06:21:58;;;;;;;14.38;4.47;;;3.80;99.90;;;;;;5001145;28;20129;-60
2023/04/03 06:24:25;;;;;;;9.00;2.65;;;3.90;99.90;;;;;;5005999;28;20050;-60
2023/04/03 06:26:52;;;;;;;6.57;2.47;;;3.90;99.90;;;;;;4992551;28;20057;-61
2023/04/03 06:29:19;;;;;;;18.92;2.72;;;3.90;99.90;;;;;;5004862;28;20109;-61
2023/04/03 06:31:46;;;;;;;10.70;2.30;;;4.00;99.90;;;;;;4999193;28;20042;-60
2023/04/03 06:34:13;;;;;;;6.57;2.25;;;4.00;99.90;;;;;;5003636;28;20142;-59
2023/04/03 06:36:40;;;;;;;25.08;4.47;;;3.90;99.90;;;;;;5004975;28;20084;-61
2023/04/03 06:39:08;;;;;;;12.45;2.17;;;4.10;99.90;;;;;;4984158;28;20050;-60
2023/04/03 06:41:35;;;;;;;6.13;2.25;;;4.10;99.90;;;;;;4990593;28;20114;-62
2023/04/03 06:44:03;;;;;;;7.72;2.45;;;4.20;99.90;;;;;;5007310;28;20075;-61
2023/04/03 06:46:30;;;;;;;11.10;2.55;;;4.30;99.90;;;;;;4994049;28;20577;-60
2023/04/03 06:48:57;;;;;;;9.85;2.60;;;4.30;99.90;;;;;;5004665;28;20038;-60
2023/04/03 06:51:27;;;;;;;8.48;2.10;;;4.20;99.90;;;;;;5007300;28;20133;-61
2023/04/03 06:53:55;;;;;;;9.00;2.10;;;4.30;99.90;;;;;;5006750;28;20615;-61
2023/04/03 06:56:22;;;;;;;11.50;2.72;;;4.30;99.90;;;;;;5007480;28;20141;-61
2023/04/03 06:58:50;;;;;;;17.77;2.33;;;4.30;99.90;;;;;;5007189;28;20050;-62
2023/04/03 07:01:18;;;;;;;9.05;2.45;;;4.40;99.90;;;;;;5007426;28;20085;-60
2023/04/03 07:03:46;;;;;;;9.65;2.40;;;4.50;99.90;;;;;;4999840;28;20842;-60
2023/04/03 07:06:13;;;;;;;13.68;2.20;;;4.50;99.90;;;;;;5007282;28;20045;-57
2023/04/03 07:08:41;;;;;;;14.90;3.58;;;4.70;99.90;;;;;;5000294;28;20064;-61
2023/04/03 07:11:08;;;;;;;11.15;2.40;;;4.80;99.90;;;;;;5007817;28;20046;-62
2023/04/03 07:13:36;;;;;;;12.90;2.80;;;4.90;99.90;;;;;;4998372;28;20050;-61
2023/04/03 07:16:04;;;;;;;11.60;3.00;;;5.00;99.90;;;;;;4652084;28;10000787;-61
2023/04/03 07:18:32;;;;;;;14.18;3.25;;;5.10;99.90;;;;;;5000095;28;20053;-60
2023/04/03 07:20:59;;;;;;;13.35;3.25;;;5.00;99.90;;;;;;5004254;28;20119;-61
2023/04/03 07:23:26;;;;;;;19.45;4.28;;;5.10;99.90;;;;;;5003006;28;20049;-60
2023/04/03 07:25:53;;;;;;;11.57;3.15;;;5.10;99.90;;;;;;5004343;28;20052;-61
2023/04/03 07:28:20;;;;;;;17.70;3.10;;;5.10;99.90;;;;;;5001457;28;20161;-61
2023/04/03 07:30:48;;;;;;;13.25;3.53;;;5.00;99.90;;;;;;5005233;28;20088;-61
2023/04/03 07:33:16;;;;;;;9.82;3.40;;;5.10;99.90;;;;;;5004348;28;20049;-62
2023/04/03 07:35:43;;;;;;;15.35;3.10;;;5.10;99.90;;;;;;5004547;28;20246;-61
2023/04/03 07:38:10;;;;;;;12.13;3.00;;;5.20;99.90;;;;;;5005283;28;20452;-61
2023/04/03 07:40:36;;;;;;;8.63;3.00;;;5.40;99.90;;;;;;4995520;28;20302;-61
2023/04/03 07:43:05;;;;;;;11.68;3.30;;;5.50;99.90;;;;;;4991599;28;20128;-61
2023/04/03 07:45:32;;;;;;;10.57;2.45;;;5.70;99.90;;;;;;5000244;28;20062;-61
2023/04/03 07:47:59;;;;;;;16.60;3.58;;;5.90;99.90;;;;;;4991075;28;20237;-61
2023/04/03 07:50:27;;;;;;;12.55;2.90;;;5.90;99.90;;;;;;5002936;28;20046;-61
2023/04/03 07:52:56;;;;;;;18.27;5.72;;;6.00;99.90;;;;;;4996608;28;20097;-61
2023/04/03 07:55:23;;;;;;;16.45;3.95;;;6.00;99.90;;;;;;5003164;28;20477;-60
2023/04/03 07:57:50;;;;;;;20.08;3.00;;;6.00;99.90;;;;;;5003988;28;20145;-61
2023/04/03 08:00:17;;;;;;;11.07;4.50;;;6.10;99.90;;;;;;4996573;28;20062;-62
2023/04/03 08:02:50;;;;;;;23.55;4.70;;;6.10;99.90;;;;;;5002496;28;20604;-61
2023/04/03 08:05:20;;;;;;;16.02;3.80;;;6.10;99.90;;;;;;4999808;28;20044;-61
2023/04/03 08:07:47;;;;;;;13.82;4.10;;;6.20;99.90;;;;;;4994146;28;20133;-62
2023/04/03 08:10:14;;;;;;;14.07;3.70;;;6.20;99.90;;;;;;4987037;28;20042;-61
2023/04/03 08:12:41;;;;;;;10.05;3.17;;;6.30;99.90;;;;;;5007551;28;20889;-61
2023/04/03 08:15:08;;;;;;;10.75;3.33;;;6.20;99.90;;;;;;5007276;28;20042;-62
2023/04/03 08:17:35;;;;;;;11.27;3.47;;;6.30;99.90;;;;;;5006515;28;20058;-62
2023/04/03 08:20:04;;;;;;;15.13;3.75;;;6.40;99.90;;;;;;5006564;28;20046;-62
2023/04/03 08:22:31;;;;;;;11.60;3.25;;;6.50;99.90;;;;;;4996286;28;20223;-61
2023/04/03 08:24:58;;;;;;;12.10;3.78;;;6.60;99.90;;;;;;5002666;28;20038;-61
2023/04/03 08:27:26;;;;;;;21.45;3.40;;;6.60;99.90;;;;;;4993113;28;20050;-60
2023/04/03 08:29:54;;;;;;;17.65;4.22;;;6.70;99.90;;;;;;5004519;28;20049;-61
2023/04/03 08:32:22;;;;;;;14.60;3.88;;;6.70;99.90;;;;;;5009547;28;20088;-61
2023/04/03 08:34:48;;;;;;;14.38;4.32;;;6.70;99.90;;;;;;5009653;28;20054;-59
2023/04/03 08:37:16;;;;;;;12.23;4.55;;;6.90;99.90;;;;;;5006691;28;20041;-57
2023/04/03 08:39:43;;;;;;;14.93;4.00;;;7.10;99.90;;;;;;5009606;28;20140;-58
2023/04/03 08:42:55;;;;;;;16.23;4.28;;;7.10;99.90;;;;;;5007777;28;20041;-60
2023/04/03 08:45:41;;;;;;;18.42;4.75;;;7.20;99.90;;;;;;4998425;28;20065;-60
2023/04/03 08:48:22;;;;;;;10.25;3.85;;;7.30;99.90;;;;;;5008850;28;20056;-60
2023/04/03 08:50:51;;;;;;;10.23;4.00;;;7.40;99.90;;;;;;4992605;28;20129;-59
2023/04/03 08:53:25;;;;;;;12.77;3.47;;;7.50;99.90;;;;;;4994932;28;20085;-59
2023/04/03 08:55:51;;;;;;;17.30;4.95;;;7.50;99.90;;;;;;5005045;28;20140;-59
2023/04/03 08:58:20;;;;;;;13.40;4.55;;;7.60;99.90;;;;;;4992441;28;20073;-58
2023/04/03 09:01:03;;;;;;;17.52;4.60;;;7.60;99.90;;;;;;4993233;28;20505;-61
2023/04/03 09:03:31;;;;;;;12.25;4.10;;;7.80;99.90;;;;;;4997019;28;20092;-59
2023/04/03 09:06:06;;;;;;;10.57;3.78;;;7.90;99.90;;;;;;4994669;28;20099;-61
2023/04/03 09:08:43;;;;;;;13.57;4.57;;;8.00;99.90;;;;;;4995976;28;20050;-59
2023/04/03 09:11:28;;;;;;;16.45;4.18;;;8.10;99.90;;;;;;5003731;28;20046;-59
2023/04/03 09:14:03;;;;;;;11.65;4.70;;;8.30;99.90;;;;;;5000417;28;20664;-60
2023/04/03 09:16:39;;;;;;;20.10;5.65;;;8.50;99.90;;;;;;4996018;28;20049;-59
2023/04/03 09:19:18;;;;;;;15.75;5.10;;;8.70;99.90;;;;;;5009882;28;20057;-60
2023/04/03 09:21:45;;;;;;;12.77;4.70;;;8.80;99.90;;;;;;4983240;28;20041;-59
2023/04/03 09:24:15;;;;;;;11.20;4.70;;;8.80;99.90;;;;;;4996025;28;20089;-60
2023/04/03 09:26:44;;;;;;;9.55;4.22;;;9.00;99.90;;;;;;4996656;28;20137;-61
2023/04/03 09:29:16;;;;;;;12.95;4.88;;;9.10;99.90;;;;;;5000190;28;20528;-62
2023/04/03 09:31:45;;;;;;;12.38;4.35;;;9.10;99.90;;;;;;4993170;28;20092;-61
2023/04/03 09:34:22;;;;;;;16.63;4.78;;;9.20;99.90;;;;;;4996273;28;20050;-59
2023/04/03 09:36:57;;;;;;;18.02;5.72;;;9.50;99.90;;;;;;5006302;28;20049;-60
2023/04/03 09:39:28;;;;;;;12.00;4.60;;;9.70;99.90;;;;;;5005181;28;20046;-61
2023/04/03 09:42:03;;;;;;;23.13;4.65;;;9.70;99.90;;;;;;5001989;28;20100;-60
2023/04/03 09:44:35;;;;;;;12.95;4.80;;;9.70;99.90;;;;;;5005197;28;20070;-61
2023/04/03 09:47:19;;;;;;;20.05;4.22;;;9.80;99.90;;;;;;4996048;28;20105;-61
2023/04/03 09:49:46;;;;;;;12.32;4.40;;;9.90;99.90;;;;;;5007014;28;20041;-60
2023/04/03 09:52:20;;;;;;;11.15;4.20;;;10.20;99.90;;;;;;5008803;28;20046;-59
2023/04/03 09:54:46;;;;;;;16.48;4.10;;;10.20;99.90;;;;;;5007452;28;20045;-60
2023/04/03 09:57:13;;;;;;;12.20;4.93;;;10.10;99.90;;;;;;5009506;28;20046;-60
2023/04/03 09:59:59;;;;;;;16.23;4.28;;;10.00;99.90;;;;;;5009030;28;20061;-59
2023/04/03 10:02:34;;;;;;;10.38;3.78;;;9.90;99.90;;;;;;4996755;28;20060;-60
2023/04/03 10:05:01;;;;;;;16.35;4.97;;;9.80;99.90;;;;;;4988886;28;20042;-61
2023/04/03 10:07:36;;;;;;;15.48;3.95;;;9.80;99.90;;;;;;5009103;28;20061;-59
2023/04/03 10:10:25;;;;;;;7.15;3.83;;;9.80;99.90;;;;;;5008349;28;20045;-60
2023/04/03 10:13:20;;;;;;;19.90;4.35;;;9.80;99.90;;;;;;5008898;28;20050;-59
2023/04/03 10:15:55;;;;;;;12.80;4.07;;;9.90;99.90;;;;;;4995813;28;20054;-59
2023/04/03 10:18:46;;;;;;;11.05;3.78;;;10.00;99.90;;;;;;4990672;28;20471;-60
2023/04/03 10:21:13;;;;;;;8.07;3.95;;;10.10;99.90;;;;;;5001528;28;20382;-60
2023/04/03 10:24:23;;;;;;;9.90;3.22;;;10.10;99.90;;;;;;5006362;28;20049;-60
2023/04/03 10:26:52;;;;;;;15.20;3.47;;;10.10;99.90;;;;;;5000218;28;20545;-60
2023/04/03 10:29:38;;;;;;;16.60;4.45;;;10.00;99.90;;;;;;4649123;28;9999724;-59
2023/04/03 10:32:26;;;;;;;8.68;3.63;;;10.00;99.90;;;;;;4993807;28;20052;-59
2023/04/03 10:35:10;;;;;;;15.93;3.67;;;9.90;99.90;;;;;;5007162;28;20042;-60
2023/04/03 10:38:00;;;;;;;14.18;4.88;;;9.90;99.90;;;;;;4978524;28;20520;-59
2023/04/03 10:40:32;;;;;;;7.97;5.00;;;9.90;99.90;;;;;;5000588;28;20547;-59
2023/04/03 10:43:24;;;;;;;12.18;3.10;;;10.00;99.90;;;;;;5008604;28;20473;-59
2023/04/03 10:46:21;;;;;;;8.68;3.25;;;10.10;99.90;;;;;;4985788;28;20510;-61
2023/04/03 10:49:27;;;;;;;8.93;2.80;;;10.10;99.90;;;;;;4998811;28;20061;-62
2023/04/03 10:52:24;;;;;;;10.80;3.08;;;10.20;99.90;;;;;;5005870;28;20042;-59
2023/04/03 10:55:03;;;;;;;18.05;3.50;;;10.10;99.90;;;;;;4998079;28;20052;-60
2023/04/03 10:57:30;;;;;;;8.80;2.45;;;10.20;99.90;;;;;;4999115;28;20052;-60
2023/04/03 10:59:59;;;;;;;5.80;2.70;;;10.20;99.90;;;;;;5002703;28;20125;-59
2023/04/03 11:02:27;;;;;;;8.23;3.08;;;10.40;99.90;;;;;;4997790;28;20236;-59
2023/04/03 11:05:01;;;;;;;5.13;3.08;;;10.40;99.90;;;;;;4994044;28;20472;-59
2023/04/03 11:07:38;;;;;;;6.28;2.28;;;10.50;99.90;;;;;;4998884;28;20124;-60
2023/04/03 11:10:35;;;;;;;4.70;2.35;;;10.50;99.90;;;;;;4994448;28;20560;-60
2023/04/03 11:13:19;;;;;;;9.07;2.65;;;10.40;99.90;;;;;;4992678;28;20047;-60
2023/04/03 11:15:46;;;;;;;14.68;3.47;;;10.50;99.90;;;;;;5004840;28;20617;-61
2023/04/03 11:18:38;;;;;;;6.32;2.17;;;10.50;99.90;;;;;;5004285;28;20092;-60
2023/04/03 11:21:13;;;;;;;7.85;2.78;;;10.60;99.90;;;;;;5003677;28;20089;-60
2023/04/03 11:23:40;;;;;;;7.78;2.55;;;10.70;99.90;;;;;;5002165;28;20046;-59
2023/04/03 11:26:18;;;;;;;5.55;2.55;;;10.80;99.90;;;;;;5007027;28;20058;-60
2023/04/03 11:28:46;;;;;;;9.90;2.88;;;10.60;99.90;;;;;;5005758;28;20053;-60
2023/04/03 11:31:16;;;;;;;9.95;3.10;;;10.70;99.90;;;;;;4990168;28;20089;-61
2023/04/03 11:34:01;;;;;;;10.65;2.78;;;10.80;99.90;;;;;;5001836;28;20050;-60
2023/04/03 11:36:32;;;;;;;5.55;2.47;;;10.80;99.90;;;;;;5007583;28;20072;-60
2023/04/03 11:39:16;;;;;;;9.43;3.22;;;10.90;99.90;;;;;;5004267;28;20049;-61
2023/04/03 11:41:43;;;;;;;5.85;2.13;;;10.80;99.90;;;;;;5005119;28;20133;-59
2023/04/03 11:44:36;;;;;;;6.72;2.47;;;10.80;99.90;;;;;;4999811;28;20053;-61
2023/04/03 11:47:05;;;;;;;20.00;4.68;;;10.80;99.90;;;;;;4999914;28;20045;-60
2023/04/03 11:50:02;;;;;;;6.68;2.75;;;10.90;99.90;;;;;;5001131;28;20050;-58
2023/04/03 11:52:38;;;;;;;9.65;2.50;;;10.80;99.90;;;;;;5008089;28;20148;-59
2023/04/03 11:55:24;;;;;;;6.25;2.40;;;10.90;99.90;;;;;;5012016;28;20142;-62
2023/04/03 11:57:57;;;;;;;7.63;2.42;;;10.90;99.90;;;;;;5007737;28;20053;-61
2023/04/03 12:00:52;;;;;;;10.07;2.58;;;10.90;99.90;;;;;;4996405;28;20065;-59
2023/04/03 12:06:16;;;;;;;5.30;1.90;;;10.80;99.90;;;;;;5010065;28;20493;-58
2023/04/03 12:08:48;;;;;;;5.53;2.17;;;10.70;99.90;;;;;;4990371;28;20042;-58
2023/04/03 12:11:26;;;;;;;11.93;2.55;;;10.70;99.90;;;;;;5000560;28;20100;-59
2023/04/03 12:13:56;;;;;;;8.70;1.88;;;10.70;99.90;;;;;;5007586;28;20069;-59
2023/04/03 12:16:29;;;;;;;8.00;2.40;;;10.80;99.90;;;;;;5005509;28;20074;-59
2023/04/03 12:18:56;;;;;;;5.72;2.85;;;10.80;99.90;;;;;;5010521;28;20125;-60
2023/04/03 12:21:29;;;;;;;8.25;2.28;;;10.90;99.90;;;;;;5009222;28;20408;-61
2023/04/03 12:24:04;;;;;;;10.75;3.05;;;11.00;99.90;;;;;;5010207;28;20050;-59
2023/04/03 12:26:55;;;;;;;13.32;2.95;;;10.90;99.90;;;;;;5010888;28;20092;-60
2023/04/03 12:29:35;;;;;;;6.88;3.03;;;10.90;99.90;;;;;;4998533;28;20071;-59
2023/04/03 12:32:22;;;;;;;7.50;2.75;;;11.00;99.90;;;;;;5000047;28;20133;-60
2023/04/03 12:35:09;;;;;;;7.57;2.90;;;11.00;99.90;;;;;;5010372;28;20077;-58
2023/04/03 12:37:48;;;;;;;4.38;2.53;;;11.10;99.90;;;;;;4995606;28;20052;-59
2023/04/03 12:40:34;;;;;;;5.53;2.40;;;11.20;99.90;;;;;;5009638;28;20133;-61
2023/04/03 12:43:28;;;;;;;8.52;2.55;;;11.30;99.90;;;;;;5009817;28;20056;-59
2023/04/03 12:46:12;;;;;;;8.57;2.42;;;11.30;99.90;;;;;;5010720;28;20052;-61
2023/04/03 12:48:54;;;;;;;6.75;2.72;;;11.30;99.90;;;;;;4996811;28;20041;-61
2023/04/03 12:51:29;;;;;;;4.25;2.15;;;11.40;99.90;;;;;;5007153;28;20058;-59
2023/04/03 12:54:25;;;;;;;4.55;2.28;;;11.30;99.90;;;;;;4992999;28;20085;-60
2023/04/03 12:56:52;;;;;;;6.57;2.30;;;11.30;99.40;;;;;;5005610;28;20132;-61
2023/04/03 12:59:24;;;;;;;9.52;2.70;;;11.20;99.90;;;;;;5010271;28;20050;-59
2023/04/03 13:01:55;;;;;;;6.45;2.28;;;11.20;99.90;;;;;;5009475;28;20424;-61
2023/04/03 13:04:22;;;;;;;6.18;2.60;;;11.30;99.90;;;;;;4995213;28;20054;-60
2023/04/03 13:06:49;;;;;;;16.48;2.75;;;11.30;99.90;;;;;;4991338;28;20042;-59
2023/04/03 13:09:27;;;;;;;4.70;2.08;;;11.30;99.90;;;;;;4847800;28;10000992;-60
2023/04/03 13:12:23;;;;;;;4.07;2.03;;;11.40;99.90;;;;;;5005045;28;20300;-60